createdAt,value
2022-12-18T00:01:55.687Z,12.23
2022-12-18T00:04:25.512Z,13.05
2022-12-18T00:06:54.066Z,14.43
2022-12-18T00:09:22.407Z,13.45
2022-12-18T00:11:52.730Z,13.80
2022-12-18T00:14:20.658Z,13.60
2022-12-18T00:16:49.962Z,16.33
2022-12-18T00:19:17.879Z,15.30
2022-12-18T00:21:46.314Z,13.95
2022-12-18T00:24:14.336Z,17.58
2022-12-18T00:26:42.284Z,15.65
2022-12-18T00:29:14.611Z,15.93
2022-12-18T00:31:43.713Z,16.20
2022-12-18T00:34:14.709Z,15.15
2022-12-18T00:36:43.337Z,16.15
2022-12-18T00:39:13.408Z,14.95
2022-12-18T00:41:58.679Z,14.60
2022-12-18T00:44:27.147Z,15.30
2022-12-18T00:46:55.422Z,14.30
2022-12-18T00:49:24.742Z,15.80
2022-12-18T00:51:52.865Z,15.75
2022-12-18T00:54:20.874Z,16.20
2022-12-18T00:56:49.825Z,15.57
2022-12-18T00:59:19.910Z,14.35
2022-12-18T01:01:48.823Z,14.50
2022-12-18T01:04:17.241Z,14.85
2022-12-18T01:06:48.482Z,13.70
2022-12-18T01:09:16.785Z,13.95
2022-12-18T01:11:44.775Z,12.65
2022-12-18T01:14:12.724Z,14.27
2022-12-18T01:16:40.842Z,12.43
2022-12-18T01:19:08.930Z,12.07
2022-12-18T01:21:37.941Z,13.23
2022-12-18T01:24:08.003Z,13.15
2022-12-18T01:26:35.951Z,12.73
2022-12-18T01:29:04.048Z,14.48
2022-12-18T01:31:34.841Z,14.43
2022-12-18T01:34:05.329Z,13.38
2022-12-18T01:36:35.352Z,12.95
2022-12-18T01:39:05.465Z,13.10
2022-12-18T01:41:49.879Z,11.95
2022-12-18T01:45:02.913Z,14.15
2022-12-18T01:47:41.083Z,11.70
2022-12-18T01:50:12.331Z,12.70
2022-12-18T01:52:42.974Z,13.77
2022-12-18T01:55:12.173Z,11.88
2022-12-18T01:57:42.603Z,12.10
2022-12-18T02:00:13.128Z,11.82
2022-12-18T02:02:42.215Z,12.43
2022-12-18T02:05:11.976Z,12.93
2022-12-18T02:07:47.525Z,13.15
2022-12-18T02:10:21.815Z,13.38
2022-12-18T02:12:58.422Z,13.30
2022-12-18T02:15:33.207Z,13.25
2022-12-18T02:18:09.847Z,13.02
2022-12-18T02:20:43.405Z,11.70
2022-12-18T02:23:26.321Z,13.40
2022-12-18T02:26:08.709Z,13.07
2022-12-18T02:28:40.233Z,13.27
2022-12-18T02:31:13.052Z,13.02
2022-12-18T02:33:43.254Z,12.68
2022-12-18T02:36:12.879Z,12.73
2022-12-18T02:38:43.075Z,11.77
2022-12-18T02:41:16.594Z,12.07
2022-12-18T02:43:50.565Z,11.80
2022-12-18T02:46:33.117Z,12.57
2022-12-18T02:49:14.026Z,12.30
2022-12-18T02:51:50.849Z,11.00
2022-12-18T02:54:27.480Z,12.23
2022-12-18T02:56:59.894Z,12.82
2022-12-18T02:59:35.554Z,12.30
2022-12-18T03:02:18.842Z,11.65
2022-12-18T03:04:53.401Z,13.20
2022-12-18T03:07:28.079Z,11.52
2022-12-18T03:09:59.922Z,10.73
2022-12-18T03:12:34.404Z,13.45
2022-12-18T03:15:06.667Z,11.73
2022-12-18T03:17:36.015Z,10.73
2022-12-18T03:20:07.784Z,10.40
2022-12-18T03:22:38.883Z,12.65
2022-12-18T03:25:11.480Z,12.23
2022-12-18T03:27:48.373Z,12.27
2022-12-18T03:30:18.431Z,12.13
2022-12-18T03:32:54.581Z,11.35
2022-12-18T03:35:32.731Z,9.60
2022-12-18T03:38:00.738Z,11.82
2022-12-18T03:40:34.531Z,10.93
2022-12-18T03:43:10.506Z,11.67
2022-12-18T03:45:44.520Z,11.15
2022-12-18T03:48:21.033Z,11.05
2022-12-18T03:50:55.357Z,12.55
2022-12-18T03:53:31.244Z,9.35
2022-12-18T03:56:02.940Z,10.40
2022-12-18T03:58:38.811Z,11.23
2022-12-18T04:01:19.714Z,13.15
2022-12-18T04:08:02.653Z,10.82
2022-12-18T04:10:32.134Z,10.77
2022-12-18T04:13:02.461Z,11.82
2022-12-18T04:15:35.497Z,10.27
2022-12-18T04:18:05.353Z,12.35
2022-12-18T04:20:40.706Z,9.05
2022-12-18T04:23:09.878Z,11.35
2022-12-18T04:25:39.555Z,10.15
2022-12-18T04:28:11.988Z,9.93
2022-12-18T04:30:42.064Z,9.68
2022-12-18T04:33:11.292Z,10.77
2022-12-18T04:35:40.083Z,9.43
2022-12-18T04:38:10.202Z,10.43
2022-12-18T04:40:38.613Z,11.25
2022-12-18T04:43:13.135Z,10.80
2022-12-18T04:45:42.942Z,9.35
2022-12-18T04:48:10.925Z,10.73
2022-12-18T04:50:39.496Z,9.45
2022-12-18T04:53:08.791Z,9.55
2022-12-18T04:55:38.036Z,10.25
2022-12-18T04:58:06.751Z,9.95
2022-12-18T05:00:34.755Z,9.52
2022-12-18T05:03:04.551Z,10.20
2022-12-18T05:05:32.628Z,8.48
2022-12-18T05:08:01.220Z,10.50
2022-12-18T05:10:33.459Z,10.63
2022-12-18T05:13:05.680Z,10.98
2022-12-18T05:15:34.950Z,10.10
2022-12-18T05:18:05.646Z,9.20
2022-12-18T05:20:33.908Z,10.68
2022-12-18T05:23:01.847Z,8.75
2022-12-18T05:25:29.844Z,10.43
2022-12-18T05:27:57.968Z,8.80
2022-12-18T05:30:26.227Z,8.27
2022-12-18T05:32:54.262Z,9.27
2022-12-18T05:35:24.450Z,7.15
2022-12-18T05:37:52.375Z,9.55
2022-12-18T05:40:20.464Z,9.05
2022-12-18T05:42:48.430Z,8.23
2022-12-18T05:45:16.477Z,9.10
2022-12-18T05:47:44.399Z,7.97
2022-12-18T05:50:12.319Z,9.82
2022-12-18T05:52:41.709Z,9.23
2022-12-18T05:55:10.215Z,9.18
2022-12-18T05:57:38.130Z,11.55
2022-12-18T06:00:07.472Z,9.13
2022-12-18T06:02:40.349Z,11.48
2022-12-18T06:05:08.933Z,8.35
2022-12-18T06:07:36.891Z,9.32
2022-12-18T06:10:07.299Z,9.85
2022-12-18T06:12:35.462Z,8.55
2022-12-18T06:15:04.073Z,8.27
2022-12-18T06:17:32.383Z,9.82
2022-12-18T06:20:00.637Z,9.43
2022-12-18T06:22:29.019Z,8.18
2022-12-18T06:24:56.972Z,9.50
2022-12-18T06:27:26.672Z,7.82
2022-12-18T06:29:54.616Z,9.23
2022-12-18T06:32:22.568Z,8.07
2022-12-18T06:34:50.550Z,9.18
2022-12-18T06:37:18.545Z,8.23
2022-12-18T06:39:46.481Z,8.70
2022-12-18T06:42:14.411Z,8.50
2022-12-18T06:44:43.685Z,9.00
2022-12-18T06:47:11.591Z,10.13
2022-12-18T06:49:39.544Z,8.50
2022-12-18T06:52:07.437Z,7.93
2022-12-18T06:54:38.163Z,7.88
2022-12-18T06:57:06.140Z,9.07
2022-12-18T06:59:34.427Z,8.65
2022-12-18T07:02:03.772Z,8.35
2022-12-18T07:04:32.629Z,9.00
2022-12-18T07:07:00.562Z,12.77
2022-12-18T07:09:31.436Z,9.90
2022-12-18T07:11:59.473Z,8.93
2022-12-18T07:14:27.877Z,9.63
2022-12-18T07:16:56.005Z,7.85
2022-12-18T07:19:25.455Z,8.25
2022-12-18T07:21:53.815Z,8.23
2022-12-18T07:24:21.763Z,8.80
2022-12-18T07:26:49.727Z,9.10
2022-12-18T07:29:17.718Z,11.43
2022-12-18T07:31:46.334Z,14.38
2022-12-18T07:34:15.625Z,10.35
2022-12-18T07:36:44.955Z,10.85
2022-12-18T07:39:13.455Z,14.93
2022-12-18T07:41:46.688Z,11.07
2022-12-18T07:44:17.306Z,11.65
2022-12-18T07:46:45.180Z,8.55
2022-12-18T07:49:13.129Z,9.80
2022-12-18T07:51:41.229Z,10.40
2022-12-18T07:54:10.472Z,10.50
2022-12-18T07:56:38.372Z,8.85
2022-12-18T07:59:06.314Z,8.40
2022-12-18T08:01:35.571Z,9.10
2022-12-18T08:04:03.646Z,9.93
2022-12-18T08:06:31.774Z,9.30
2022-12-18T08:08:59.814Z,8.30
2022-12-18T08:11:30.215Z,9.32
2022-12-18T08:13:58.593Z,8.23
2022-12-18T08:16:27.378Z,9.50
2022-12-18T08:18:56.043Z,9.93
2022-12-18T08:21:27.224Z,10.27
2022-12-18T08:23:56.715Z,9.02
2022-12-18T08:26:26.225Z,7.97
2022-12-18T08:28:55.904Z,9.13
2022-12-18T08:31:23.988Z,8.18
2022-12-18T08:33:53.815Z,8.52
2022-12-18T08:36:23.830Z,8.48
2022-12-18T08:38:52.831Z,8.93
2022-12-18T08:41:22.044Z,7.70
2022-12-18T08:44:07.508Z,8.95
2022-12-18T08:46:38.568Z,9.35
2022-12-18T08:49:07.392Z,9.88
2022-12-18T08:51:35.852Z,10.32
2022-12-18T08:54:04.586Z,11.27
2022-12-18T08:56:35.041Z,10.43
2022-12-18T08:59:03.272Z,10.80
2022-12-18T09:01:31.330Z,12.80
2022-12-18T09:04:01.464Z,8.25
2022-12-18T09:06:29.369Z,12.95
2022-12-18T09:08:57.361Z,12.90
2022-12-18T09:11:27.336Z,11.45
2022-12-18T09:13:56.640Z,10.25
2022-12-18T09:16:31.521Z,11.77
2022-12-18T09:19:02.018Z,11.95
2022-12-18T09:21:33.076Z,11.55
2022-12-18T09:24:04.139Z,10.73
2022-12-18T09:26:33.154Z,10.38
2022-12-18T09:29:01.177Z,12.10
2022-12-18T09:31:29.057Z,10.13
2022-12-18T09:33:57.350Z,11.27
2022-12-18T09:36:27.828Z,11.77
2022-12-18T09:38:55.883Z,13.13
2022-12-18T09:41:46.631Z,12.13
2022-12-18T09:44:25.531Z,12.68
2022-12-18T09:47:04.455Z,10.95
2022-12-18T09:49:38.262Z,11.73
2022-12-18T09:52:13.469Z,13.32
2022-12-18T09:54:48.341Z,11.15
2022-12-18T09:57:19.234Z,11.70
2022-12-18T09:59:53.388Z,15.02
2022-12-18T10:02:24.579Z,10.75
2022-12-18T10:05:03.985Z,14.32
2022-12-18T10:07:43.596Z,14.07
2022-12-18T10:10:19.124Z,14.05
2022-12-18T10:13:02.550Z,16.67
2022-12-18T10:15:41.839Z,46.80
2022-12-18T10:18:23.783Z,20.15
2022-12-18T10:20:54.694Z,13.10
2022-12-18T10:23:33.096Z,11.68
2022-12-18T10:26:05.037Z,11.57
2022-12-18T10:28:34.535Z,10.68
2022-12-18T10:31:02.738Z,11.13
2022-12-18T10:33:33.166Z,10.73
2022-12-18T10:36:02.112Z,10.00
2022-12-18T10:38:32.841Z,10.32
2022-12-18T10:41:03.329Z,9.52
2022-12-18T10:43:32.883Z,10.30
2022-12-18T10:46:17.361Z,11.75
2022-12-18T10:48:55.543Z,10.25
2022-12-18T10:51:27.087Z,9.85
2022-12-18T10:56:33.420Z,8.98
2022-12-18T10:59:05.016Z,10.88
2022-12-18T11:01:49.134Z,11.90
2022-12-18T11:04:21.358Z,9.63
2022-12-18T11:07:01.019Z,9.82
2022-12-18T11:09:32.757Z,10.80
2022-12-18T11:12:02.273Z,10.30
2022-12-18T11:14:33.200Z,11.32
2022-12-18T11:17:24.864Z,9.48
2022-12-18T11:19:56.302Z,10.30
2022-12-18T11:22:28.607Z,11.65
2022-12-18T11:27:54.533Z,10.65
2022-12-18T11:30:29.439Z,11.27
2022-12-18T11:35:40.532Z,12.10
2022-12-18T11:38:19.328Z,12.43
2022-12-18T11:40:57.126Z,10.98
2022-12-18T11:43:30.648Z,12.02
2022-12-18T11:46:03.798Z,12.15
2022-12-18T11:48:36.262Z,13.02
2022-12-18T11:51:07.663Z,13.32
2022-12-18T11:53:39.048Z,13.25
2022-12-18T11:56:28.170Z,12.43
2022-12-18T11:59:05.703Z,13.70
2022-12-18T12:01:46.303Z,14.07
2022-12-18T12:04:40.587Z,13.32
2022-12-18T12:07:19.814Z,15.30
2022-12-18T12:10:00.917Z,14.00
2022-12-18T12:12:48.889Z,15.27
2022-12-18T12:15:29.057Z,14.60
2022-12-18T12:18:09.623Z,14.40
2022-12-18T12:20:49.343Z,15.07
2022-12-18T12:23:27.615Z,13.98
2022-12-18T12:26:01.660Z,13.68
2022-12-18T12:28:44.602Z,13.82
2022-12-18T12:31:21.208Z,12.75
2022-12-18T12:33:54.201Z,13.45
2022-12-18T12:36:28.530Z,13.07
2022-12-18T12:38:59.793Z,13.43
2022-12-18T12:41:50.195Z,12.63
2022-12-18T12:44:26.054Z,14.30
2022-12-18T12:46:57.182Z,14.27
2022-12-18T12:49:29.626Z,12.93
2022-12-18T12:52:02.787Z,11.93
2022-12-18T12:54:33.862Z,11.93
2022-12-18T12:57:10.779Z,12.05
2022-12-18T12:59:49.398Z,13.63
2022-12-18T13:02:24.769Z,12.82
2022-12-18T13:05:00.014Z,13.65
2022-12-18T13:07:34.682Z,14.57
2022-12-18T13:10:34.226Z,14.33
2022-12-18T13:13:03.665Z,14.15
2022-12-18T13:18:33.164Z,15.13
2022-12-18T13:21:11.812Z,14.88
2022-12-18T13:23:40.784Z,14.38
2022-12-18T13:26:35.272Z,13.98
2022-12-18T13:29:07.098Z,13.63
2022-12-18T13:32:20.630Z,13.48
2022-12-18T13:34:50.819Z,11.45
2022-12-18T13:37:42.933Z,11.30
2022-12-18T13:40:59.284Z,9.68
2022-12-18T13:43:38.413Z,8.20
2022-12-18T13:46:23.384Z,9.05
2022-12-18T13:48:58.452Z,7.60
2022-12-18T13:51:28.019Z,9.75
2022-12-18T13:53:59.505Z,9.27
2022-12-18T13:56:30.266Z,9.85
2022-12-18T13:59:23.221Z,9.27
2022-12-18T14:01:56.426Z,10.93
2022-12-18T14:04:28.826Z,10.75
2022-12-18T14:07:00.873Z,14.05
2022-12-18T14:09:32.195Z,14.10
2022-12-18T14:12:15.509Z,13.88
2022-12-18T14:14:46.052Z,14.30
2022-12-18T14:17:15.020Z,14.05
2022-12-18T14:19:46.749Z,14.73
2022-12-18T14:22:18.911Z,13.80
2022-12-18T14:24:47.532Z,12.75
2022-12-18T14:27:23.882Z,16.17
2022-12-18T14:29:52.013Z,15.40
2022-12-18T14:32:21.396Z,15.48
2022-12-18T14:34:52.948Z,15.05
2022-12-18T14:37:24.450Z,15.10
2022-12-18T14:39:57.957Z,12.68
2022-12-18T14:42:29.121Z,11.70
2022-12-18T14:45:41.728Z,13.70
2022-12-18T14:48:16.278Z,11.48
2022-12-18T14:51:00.562Z,13.40
2022-12-18T14:53:41.469Z,11.95
2022-12-18T14:56:18.022Z,11.38
2022-12-18T14:58:51.493Z,8.25
2022-12-18T15:01:25.830Z,9.07
2022-12-18T15:03:55.254Z,9.20
2022-12-18T15:06:31.215Z,10.85
2022-12-18T15:09:00.106Z,9.88
2022-12-18T15:11:36.686Z,10.88
2022-12-18T15:14:24.314Z,10.60
2022-12-18T15:16:55.794Z,10.55
2022-12-18T15:19:27.653Z,10.05
2022-12-18T15:22:05.887Z,11.85
2022-12-18T15:24:35.006Z,10.48
2022-12-18T15:27:03.281Z,11.57
2022-12-18T15:29:31.552Z,13.07
2022-12-18T15:32:05.245Z,13.23
2022-12-18T15:34:34.967Z,11.05
2022-12-18T15:37:04.212Z,12.30
2022-12-18T15:39:32.134Z,13.13
2022-12-18T15:42:32.009Z,12.98
2022-12-18T15:44:59.955Z,11.82
2022-12-18T15:47:28.043Z,10.57
2022-12-18T15:49:56.006Z,9.48
2022-12-18T15:52:27.105Z,10.15
2022-12-18T15:55:12.615Z,8.90
2022-12-18T15:57:40.634Z,7.03
2022-12-18T16:00:14.212Z,6.50
2022-12-18T16:02:42.337Z,6.20
2022-12-18T16:05:17.936Z,6.80
2022-12-18T16:07:47.298Z,4.88
2022-12-18T16:10:15.819Z,4.88
2022-12-18T16:12:44.415Z,4.25
2022-12-18T16:15:22.420Z,6.00
2022-12-18T16:17:52.658Z,4.30
2022-12-18T16:20:22.778Z,5.35
2022-12-18T16:22:52.076Z,5.13
2022-12-18T16:25:26.551Z,5.10
2022-12-18T16:27:56.084Z,5.70
2022-12-18T16:30:27.310Z,5.70
2022-12-18T16:32:56.342Z,4.45
2022-12-18T16:35:25.122Z,7.35
2022-12-18T16:37:54.702Z,6.72
2022-12-18T16:40:22.663Z,6.30
2022-12-18T16:42:50.629Z,6.53
2022-12-18T16:45:19.561Z,4.88
2022-12-18T16:47:47.688Z,5.90
2022-12-18T16:50:15.796Z,5.57
2022-12-18T16:52:43.946Z,6.15
2022-12-18T16:55:13.252Z,5.10
2022-12-18T16:57:41.269Z,6.32
2022-12-18T17:00:10.575Z,5.68
2022-12-18T17:02:38.760Z,5.80
2022-12-18T17:05:07.557Z,5.22
2022-12-18T17:07:35.490Z,5.70
2022-12-18T17:10:05.088Z,5.68
2022-12-18T17:12:34.392Z,6.65
2022-12-18T17:15:02.409Z,5.22
2022-12-18T17:17:30.359Z,5.80
2022-12-18T17:19:58.298Z,4.85
2022-12-18T17:22:26.251Z,5.30
2022-12-18T17:24:54.168Z,5.63
2022-12-18T17:27:22.153Z,5.72
2022-12-18T17:29:51.505Z,5.65
2022-12-18T17:32:19.619Z,4.45
2022-12-18T17:34:47.815Z,5.53
2022-12-18T17:37:16.078Z,5.72
2022-12-18T17:39:44.241Z,5.28
2022-12-18T17:42:15.462Z,5.35
2022-12-18T17:44:44.177Z,5.88
2022-12-18T17:47:13.804Z,5.00
2022-12-18T17:49:42.100Z,5.13
2022-12-18T17:52:10.306Z,5.50
2022-12-18T17:54:41.383Z,4.93
2022-12-18T17:57:09.957Z,4.95
2022-12-18T17:59:37.929Z,6.03
2022-12-18T18:02:06.147Z,5.85
2022-12-18T18:04:35.909Z,5.75
2022-12-18T18:07:04.051Z,6.20
2022-12-18T18:09:32.570Z,5.07
2022-12-18T18:12:18.479Z,5.45
2022-12-18T18:14:47.070Z,5.47
2022-12-18T18:17:15.080Z,4.53
2022-12-18T18:19:49.343Z,5.35
2022-12-18T18:22:18.041Z,5.78
2022-12-18T18:24:47.098Z,5.72
2022-12-18T18:27:15.066Z,5.50
2022-12-18T18:29:43.147Z,5.43
2022-12-18T18:32:11.356Z,4.88
2022-12-18T18:34:43.900Z,6.13
2022-12-18T18:37:12.161Z,5.75
2022-12-18T18:39:40.277Z,5.88
2022-12-18T18:42:08.360Z,5.97
2022-12-18T18:44:36.499Z,5.03
2022-12-18T18:47:06.953Z,5.22
2022-12-18T18:49:37.455Z,5.82
2022-12-18T18:52:08.126Z,5.70
2022-12-18T18:54:36.125Z,6.82
2022-12-18T18:57:20.440Z,8.18
2022-12-18T18:59:48.983Z,5.70
2022-12-18T19:02:18.415Z,5.80
2022-12-18T19:04:47.153Z,5.55
2022-12-18T19:07:29.814Z,5.63
2022-12-18T19:10:04.388Z,5.60
2022-12-18T19:12:51.633Z,4.85
2022-12-18T19:15:19.739Z,4.47
2022-12-18T19:17:47.960Z,4.63
2022-12-18T19:20:16.744Z,5.18
2022-12-18T19:22:50.956Z,6.32
2022-12-18T19:25:29.687Z,5.72
2022-12-18T19:28:07.231Z,5.43
2022-12-18T19:30:40.812Z,6.28
2022-12-18T19:33:34.023Z,5.97
2022-12-18T19:35:57.225Z,5.05
2022-12-18T19:38:27.193Z,4.65
2022-12-18T19:40:57.706Z,5.75
2022-12-18T19:43:26.036Z,5.28
2022-12-18T19:45:56.207Z,5.00
2022-12-18T19:48:24.306Z,5.45
2022-12-18T19:50:52.418Z,4.63
2022-12-18T19:53:20.581Z,4.38
2022-12-18T19:55:50.049Z,4.93
2022-12-18T19:58:18.391Z,5.18
2022-12-18T20:00:48.486Z,5.03
2022-12-18T20:03:25.972Z,6.03
2022-12-18T20:06:09.268Z,5.05
2022-12-18T20:08:37.234Z,6.38
2022-12-18T20:11:07.294Z,5.15
2022-12-18T20:13:35.936Z,5.65
2022-12-18T20:16:04.467Z,4.85
2022-12-18T20:18:32.597Z,4.82
2022-12-18T20:21:00.727Z,5.78
2022-12-18T20:23:30.597Z,4.85
2022-12-18T20:26:01.085Z,5.75
2022-12-18T20:28:31.260Z,5.82
2022-12-18T20:31:02.488Z,7.28
2022-12-18T20:33:31.541Z,5.40
2022-12-18T20:36:03.649Z,5.75
2022-12-18T20:38:32.113Z,6.07
2022-12-18T20:41:02.386Z,5.55
2022-12-18T20:43:32.022Z,4.93
2022-12-18T20:46:03.834Z,5.60
2022-12-18T20:48:32.616Z,5.35
2022-12-18T20:51:02.065Z,5.97
2022-12-18T20:53:31.975Z,5.60
2022-12-18T20:56:00.402Z,5.43
2022-12-18T20:58:28.377Z,5.30
2022-12-18T21:01:06.632Z,5.53
2022-12-18T21:03:35.023Z,5.90
2022-12-18T21:06:03.488Z,5.50
2022-12-18T21:08:31.764Z,4.70
2022-12-18T21:11:34.428Z,5.10
2022-12-18T21:14:02.570Z,5.28
2022-12-18T21:16:32.112Z,5.40
2022-12-18T21:19:00.265Z,5.20
2022-12-18T21:21:28.698Z,5.53
2022-12-18T21:23:57.054Z,5.65
2022-12-18T21:26:27.324Z,4.93
2022-12-18T21:28:56.996Z,5.45
2022-12-18T21:31:27.792Z,5.30
2022-12-18T21:34:02.160Z,5.07
2022-12-18T21:36:30.887Z,5.35
2022-12-18T21:38:59.782Z,5.10
2022-12-18T21:41:46.485Z,5.03
2022-12-18T21:44:17.081Z,5.18
2022-12-18T21:46:51.495Z,4.80
2022-12-18T21:49:25.223Z,4.70
2022-12-18T21:51:55.322Z,4.63
2022-12-18T21:54:23.835Z,5.60
2022-12-18T21:56:53.826Z,4.70
2022-12-18T21:59:23.461Z,5.35
2022-12-18T22:01:52.938Z,5.22
2022-12-18T22:04:21.366Z,5.70
2022-12-18T22:06:50.950Z,5.45
2022-12-18T22:09:20.779Z,5.80
2022-12-18T22:11:50.009Z,4.80
2022-12-18T22:14:19.614Z,4.68
2022-12-18T22:16:48.250Z,5.18
2022-12-18T22:19:17.810Z,4.82
2022-12-18T22:21:47.604Z,4.82
2022-12-18T22:24:19.651Z,5.57
2022-12-18T22:26:48.385Z,5.50
2022-12-18T22:29:36.010Z,4.97
2022-12-18T22:32:04.661Z,6.03
2022-12-18T22:34:36.542Z,5.13
2022-12-18T22:37:04.937Z,4.70
2022-12-18T22:39:34.321Z,6.35
2022-12-18T22:42:02.687Z,5.20
2022-12-18T22:44:30.648Z,5.53
2022-12-18T22:47:05.542Z,4.35
2022-12-18T22:49:36.195Z,5.72
2022-12-18T22:52:04.331Z,4.93
2022-12-18T22:54:32.521Z,5.20
2022-12-18T22:57:01.853Z,4.55
2022-12-18T22:59:29.793Z,5.03
2022-12-18T23:01:58.659Z,5.78
2022-12-18T23:04:31.290Z,5.30
2022-12-18T23:07:04.904Z,5.15
2022-12-18T23:09:33.378Z,5.90
2022-12-18T23:12:02.962Z,5.70
2022-12-18T23:14:31.809Z,5.25
2022-12-18T23:16:59.779Z,5.60
2022-12-18T23:19:27.775Z,4.45
2022-12-18T23:21:58.219Z,4.68
2022-12-18T23:24:26.667Z,5.57
2022-12-18T23:26:54.972Z,5.57
2022-12-18T23:29:24.266Z,5.28
2022-12-18T23:31:52.227Z,5.53
2022-12-18T23:34:20.209Z,5.70
2022-12-18T23:36:50.915Z,4.85
2022-12-18T23:39:29.520Z,6.57
2022-12-18T23:41:58.101Z,6.18
2022-12-18T23:44:27.574Z,5.68
2022-12-18T23:46:56.140Z,5.22
2022-12-18T23:49:24.166Z,6.55
2022-12-18T23:51:54.448Z,6.70
2022-12-18T23:54:28.394Z,6.43
2022-12-18T23:57:01.509Z,5.47
2022-12-18T23:59:30.803Z,5.20
